createdAt,value
2023-04-03T00:01:53.610Z,93.87
2023-04-03T00:04:20.282Z,93.87
2023-04-03T00:06:46.607Z,94.60
2023-04-03T00:09:12.987Z,95.59
2023-04-03T00:11:39.320Z,94.79
2023-04-03T00:14:05.637Z,93.91
2023-04-03T00:16:32.081Z,94.57
2023-04-03T00:18:58.424Z,95.37
2023-04-03T00:21:24.726Z,95.17
2023-04-03T00:23:51.176Z,91.98
2023-04-03T00:26:17.560Z,91.42
2023-04-03T00:28:44.179Z,94.57
2023-04-03T00:31:10.865Z,93.99
2023-04-03T00:33:37.214Z,95.71
2023-04-03T00:36:12.018Z,96.34
2023-04-03T00:38:38.542Z,96.82
2023-04-03T00:41:05.509Z,97.53
2023-04-03T00:43:31.984Z,98.09
2023-04-03T00:45:59.808Z,97.82
2023-04-03T00:48:45.007Z,98.23
2023-04-03T00:51:19.582Z,98.09
2023-04-03T00:53:56.484Z,97.38
2023-04-03T00:56:25.790Z,98.97
2023-04-03T00:58:57.301Z,99.15
2023-04-03T01:01:27.052Z,98.61
2023-04-03T01:03:53.656Z,98.16
2023-04-03T01:06:27.480Z,99.35
2023-04-03T01:08:55.172Z,98.37
2023-04-03T01:11:22.269Z,98.47
2023-04-03T01:13:49.998Z,100.00
2023-04-03T01:16:16.416Z,100.00
2023-04-03T01:18:44.150Z,100.00
2023-04-03T01:21:32.002Z,100.00
2023-04-03T01:24:01.087Z,100.00
2023-04-03T01:26:29.128Z,100.00
2023-04-03T01:28:56.439Z,100.00
2023-04-03T01:31:35.074Z,100.00
2023-04-03T01:34:01.731Z,100.00
2023-04-03T01:36:31.900Z,100.00
2023-04-03T01:39:00.480Z,100.00
2023-04-03T01:41:28.231Z,100.00
2023-04-03T01:44:00.779Z,100.00
2023-04-03T01:46:27.218Z,100.00
2023-04-03T01:48:53.563Z,100.00
2023-04-03T01:51:19.897Z,100.00
2023-04-03T01:53:46.250Z,100.00
2023-04-03T01:56:13.242Z,100.00
2023-04-03T01:58:39.841Z,100.00
2023-04-03T02:01:06.892Z,100.00
2023-04-03T02:03:33.380Z,100.00
2023-04-03T02:06:00.820Z,100.00
2023-04-03T02:08:27.259Z,100.00
2023-04-03T02:10:53.783Z,100.00
2023-04-03T02:13:20.481Z,100.00
2023-04-03T02:15:46.842Z,100.00
2023-04-03T02:18:17.132Z,100.00
2023-04-03T02:20:43.450Z,100.00
2023-04-03T02:23:10.592Z,100.00
2023-04-03T02:25:38.594Z,100.00
2023-04-03T02:28:05.674Z,100.00
2023-04-03T02:30:31.965Z,100.00
2023-04-03T02:32:58.350Z,100.00
2023-04-03T02:35:25.717Z,100.00
2023-04-03T02:37:54.014Z,100.00
2023-04-03T02:40:22.312Z,100.00
2023-04-03T02:42:48.604Z,100.00
2023-04-03T02:45:15.189Z,100.00
2023-04-03T02:47:42.154Z,100.00
2023-04-03T02:50:10.115Z,100.00
2023-04-03T02:52:36.440Z,100.00
2023-04-03T02:55:03.312Z,100.00
2023-04-03T02:57:29.729Z,100.00
2023-04-03T02:59:56.142Z,100.00
2023-04-03T03:02:22.579Z,100.00
2023-04-03T03:04:48.967Z,100.00
2023-04-03T03:07:15.595Z,100.00
2023-04-03T03:09:41.969Z,100.00
2023-04-03T03:12:08.348Z,100.00
2023-04-03T03:14:34.651Z,100.00
2023-04-03T03:17:00.971Z,100.00
2023-04-03T03:19:27.264Z,100.00
2023-04-03T03:21:57.790Z,100.00
2023-04-03T03:24:24.144Z,100.00
2023-04-03T03:26:50.533Z,99.21
2023-04-03T03:29:16.902Z,97.54
2023-04-03T03:31:43.967Z,95.66
2023-04-03T03:34:10.353Z,95.89
2023-04-03T03:36:37.027Z,94.27
2023-04-03T03:39:03.722Z,93.76
2023-04-03T03:41:30.417Z,92.92
2023-04-03T03:43:57.818Z,91.79
2023-04-03T03:46:25.153Z,92.04
2023-04-03T03:48:53.068Z,91.63
2023-04-03T03:51:19.614Z,90.22
2023-04-03T03:53:46.488Z,90.13
2023-04-03T03:56:15.578Z,88.87
2023-04-03T03:58:42.638Z,88.54
2023-04-03T04:01:09.229Z,88.07
2023-04-03T04:03:42.144Z,87.73
2023-04-03T04:06:11.151Z,88.08
2023-04-03T04:08:37.886Z,87.78
2023-04-03T04:11:07.373Z,86.81
2023-04-03T04:13:34.355Z,86.90
2023-04-03T04:16:01.720Z,86.81
2023-04-03T04:18:29.371Z,86.93
2023-04-03T04:20:55.806Z,86.04
2023-04-03T04:23:23.040Z,86.31
2023-04-03T04:25:50.349Z,86.90
2023-04-03T04:28:17.325Z,87.74
2023-04-03T04:30:45.839Z,86.48
2023-04-03T04:33:14.751Z,86.53
2023-04-03T04:35:43.478Z,87.97
2023-04-03T04:38:10.376Z,87.72
2023-04-03T04:40:38.521Z,87.48
2023-04-03T04:43:05.804Z,87.56
2023-04-03T04:45:32.558Z,88.17
2023-04-03T04:47:59.266Z,87.87
2023-04-03T04:50:26.126Z,88.04
2023-04-03T04:52:53.862Z,88.38
2023-04-03T04:55:20.319Z,89.63
2023-04-03T04:57:46.749Z,89.04
2023-04-03T05:00:14.125Z,89.36
2023-04-03T05:02:40.597Z,88.31
2023-04-03T05:05:08.017Z,89.47
2023-04-03T05:07:36.473Z,90.20
2023-04-03T05:10:04.436Z,89.80
2023-04-03T05:12:31.894Z,88.72
2023-04-03T05:15:01.010Z,87.41
2023-04-03T05:17:29.528Z,87.81
2023-04-03T05:19:57.135Z,87.42
2023-04-03T05:22:24.661Z,87.97
2023-04-03T05:24:54.362Z,88.20
2023-04-03T05:27:21.860Z,86.40
2023-04-03T05:29:53.760Z,86.11
2023-04-03T05:32:23.821Z,85.82
2023-04-03T05:34:56.560Z,87.62
2023-04-03T05:37:22.988Z,86.74
2023-04-03T05:39:51.697Z,85.78
2023-04-03T05:42:18.096Z,85.63
2023-04-03T05:44:46.961Z,86.56
2023-04-03T05:47:14.218Z,86.36
2023-04-03T05:49:41.766Z,85.56
2023-04-03T05:52:26.517Z,85.70
2023-04-03T05:54:53.970Z,86.05
2023-04-03T05:57:25.389Z,84.41
2023-04-03T05:59:51.975Z,83.27
2023-04-03T06:02:22.421Z,83.48
2023-04-03T06:04:50.439Z,84.72
2023-04-03T06:07:21.876Z,83.99
2023-04-03T06:09:51.983Z,83.55
2023-04-03T06:12:18.961Z,83.25
2023-04-03T06:14:45.689Z,81.99
2023-04-03T06:17:14.797Z,82.70
2023-04-03T06:19:41.610Z,83.18
2023-04-03T06:22:08.214Z,81.55
2023-04-03T06:24:34.583Z,81.05
2023-04-03T06:27:01.089Z,82.33
2023-04-03T06:29:27.447Z,81.05
2023-04-03T06:31:53.853Z,80.77
2023-04-03T06:34:21.165Z,80.85
2023-04-03T06:36:48.026Z,80.20
2023-04-03T06:39:16.918Z,80.73
2023-04-03T06:41:44.141Z,80.72
2023-04-03T06:44:12.041Z,79.29
2023-04-03T06:46:39.752Z,78.88
2023-04-03T06:49:08.609Z,80.68
2023-04-03T06:51:36.139Z,80.15
2023-04-03T06:54:03.566Z,80.44
2023-04-03T06:56:29.902Z,79.95
2023-04-03T06:58:58.559Z,80.13
2023-04-03T07:01:28.566Z,80.35
2023-04-03T07:03:56.267Z,80.86
2023-04-03T07:06:23.002Z,79.18
2023-04-03T07:08:49.989Z,79.36
2023-04-03T07:11:17.511Z,78.98
2023-04-03T07:13:44.184Z,78.83
2023-04-03T07:16:11.266Z,77.96
2023-04-03T07:18:37.872Z,77.86
2023-04-03T07:21:05.272Z,77.76
2023-04-03T07:23:31.877Z,78.43
2023-04-03T07:25:58.251Z,78.97
2023-04-03T07:28:25.210Z,78.25
2023-04-03T07:31:00.993Z,78.04
2023-04-03T07:33:27.408Z,78.01
2023-04-03T07:35:54.996Z,78.28
2023-04-03T07:38:21.361Z,77.77
2023-04-03T07:40:49.046Z,77.98
2023-04-03T07:43:18.274Z,78.43
2023-04-03T07:45:44.864Z,77.84
2023-04-03T07:48:12.961Z,78.92
2023-04-03T07:50:41.672Z,78.91
2023-04-03T07:53:08.729Z,78.33
2023-04-03T07:55:38.367Z,78.37
2023-04-03T07:58:05.618Z,77.56
2023-04-03T08:00:31.957Z,78.72
2023-04-03T08:02:58.415Z,78.33
2023-04-03T08:05:24.768Z,77.44
2023-04-03T08:07:51.155Z,75.99
2023-04-03T08:10:17.617Z,76.53
2023-04-03T08:12:47.314Z,75.54
2023-04-03T08:15:13.901Z,76.70
2023-04-03T08:17:40.301Z,75.53
2023-04-03T08:20:07.871Z,76.16
2023-04-03T08:22:34.921Z,74.52
2023-04-03T08:25:02.761Z,73.89
2023-04-03T08:27:29.444Z,73.67
2023-04-03T08:29:57.691Z,73.03
2023-04-03T08:32:24.306Z,72.95
2023-04-03T08:34:50.849Z,72.18
2023-04-03T08:37:17.236Z,73.33
2023-04-03T08:39:44.644Z,73.01
2023-04-03T08:42:37.370Z,71.79
2023-04-03T08:45:17.519Z,72.19
2023-04-03T08:47:48.095Z,73.13
2023-04-03T08:50:24.550Z,71.87
2023-04-03T08:52:54.728Z,71.91
2023-04-03T08:55:28.917Z,72.76
2023-04-03T08:58:02.571Z,71.40
2023-04-03T09:00:35.498Z,70.55
2023-04-03T09:03:01.936Z,71.54
2023-04-03T09:05:49.118Z,72.90
2023-04-03T09:08:24.294Z,71.46
2023-04-03T09:11:14.637Z,71.05
2023-04-03T09:13:54.936Z,69.54
2023-04-03T09:16:48.816Z,66.64
2023-04-03T09:19:28.454Z,67.13
2023-04-03T09:21:58.000Z,67.23
2023-04-03T09:24:25.617Z,67.71
2023-04-03T09:27:00.584Z,66.79
2023-04-03T09:29:27.432Z,67.62
2023-04-03T09:31:59.831Z,66.91
2023-04-03T09:34:40.617Z,66.32
2023-04-03T09:37:07.112Z,65.40
2023-04-03T09:39:50.781Z,65.76
2023-04-03T09:42:23.449Z,65.25
2023-04-03T09:45:05.716Z,65.45
2023-04-03T09:47:34.538Z,66.76
2023-04-03T09:50:13.101Z,65.58
2023-04-03T09:52:40.575Z,65.27
2023-04-03T09:55:19.407Z,66.56
2023-04-03T09:57:46.862Z,66.01
2023-04-03T10:00:22.721Z,66.19
2023-04-03T10:02:55.285Z,64.24
2023-04-03T10:05:38.496Z,64.06
2023-04-03T10:08:14.097Z,63.51
2023-04-03T10:10:42.560Z,64.73
2023-04-03T10:13:21.028Z,63.24
2023-04-03T10:16:04.166Z,61.98
2023-04-03T10:18:50.186Z,59.50
2023-04-03T10:21:44.591Z,60.24
2023-04-03T10:24:25.285Z,60.81
2023-04-03T10:27:25.393Z,60.42
2023-04-03T10:30:04.689Z,59.65
2023-04-03T10:32:49.888Z,60.32
2023-04-03T10:35:39.232Z,57.96
2023-04-03T10:38:41.869Z,58.14
2023-04-03T10:41:17.995Z,55.80
2023-04-03T10:44:10.304Z,58.39
2023-04-03T10:46:43.008Z,55.88
2023-04-03T10:49:18.268Z,56.25
2023-04-03T10:51:48.428Z,54.08
2023-04-03T10:54:26.945Z,51.89
2023-04-03T10:57:11.790Z,50.59
2023-04-03T10:59:57.322Z,50.44
2023-04-03T11:02:31.096Z,48.88
2023-04-03T11:05:05.957Z,46.72
2023-04-03T11:07:41.838Z,44.56
2023-04-03T11:10:20.190Z,43.64
2023-04-03T11:12:57.673Z,43.21
2023-04-03T11:15:25.452Z,44.20
2023-04-03T11:18:03.758Z,42.19
2023-04-03T11:20:34.984Z,42.41
2023-04-03T11:23:04.045Z,39.82
2023-04-03T11:25:33.678Z,39.38
2023-04-03T11:28:04.654Z,41.13
2023-04-03T11:30:49.604Z,39.97
2023-04-03T11:33:22.950Z,39.78
2023-04-03T11:35:54.996Z,41.45
2023-04-03T11:38:30.316Z,39.93
2023-04-03T11:40:58.022Z,39.74
2023-04-03T11:43:32.376Z,39.15
2023-04-03T11:46:04.655Z,38.98
2023-04-03T11:48:32.608Z,38.82
2023-04-03T11:51:01.121Z,37.62
2023-04-03T11:53:40.003Z,37.93
2023-04-03T11:56:24.718Z,36.16
2023-04-03T11:59:13.028Z,38.08
2023-04-03T12:01:52.891Z,36.51
2023-04-03T12:04:22.486Z,36.61
2023-04-03T12:06:49.745Z,36.67
2023-04-03T12:09:36.350Z,37.22
2023-04-03T12:12:25.966Z,37.88
2023-04-03T12:14:52.906Z,36.24
2023-04-03T12:17:28.432Z,36.65
2023-04-03T12:19:54.813Z,35.05
2023-04-03T12:22:22.260Z,34.35
2023-04-03T12:24:51.572Z,34.66
2023-04-03T12:27:24.109Z,35.22
2023-04-03T12:30:04.824Z,34.86
2023-04-03T12:32:40.516Z,34.22
2023-04-03T12:35:30.554Z,34.49
2023-04-03T12:38:34.196Z,33.55
2023-04-03T12:41:22.193Z,32.05
2023-04-03T12:44:00.623Z,33.56
2023-04-03T12:46:36.669Z,33.35
2023-04-03T12:49:03.088Z,33.49
2023-04-03T12:51:38.348Z,34.38
2023-04-03T12:54:23.216Z,33.64
2023-04-03T12:56:49.524Z,33.23
2023-04-03T12:59:24.225Z,34.40
2023-04-03T13:01:56.103Z,33.28
2023-04-03T13:04:23.303Z,32.17
2023-04-03T13:06:50.718Z,32.84
2023-04-03T13:09:37.744Z,33.15
2023-04-03T13:12:12.746Z,32.43
2023-04-03T13:14:39.465Z,32.50
2023-04-03T13:17:15.699Z,32.42
2023-04-03T13:19:43.368Z,32.77
2023-04-03T13:22:40.183Z,33.62
2023-04-03T13:25:09.042Z,36.11
2023-04-03T13:27:35.869Z,35.74
2023-04-03T13:30:04.549Z,35.63
2023-04-03T13:32:32.335Z,34.83
2023-04-03T13:35:08.204Z,33.58
2023-04-03T13:37:55.293Z,34.26
2023-04-03T13:40:22.336Z,34.85
2023-04-03T13:43:00.727Z,35.02
2023-04-03T13:45:29.885Z,34.70
2023-04-03T13:48:24.612Z,34.86
2023-04-03T13:51:01.375Z,35.41
2023-04-03T13:53:31.721Z,35.56
2023-04-03T13:56:10.663Z,35.43
2023-04-03T13:58:38.606Z,36.56
2023-04-03T14:01:10.507Z,37.55
2023-04-03T14:03:45.708Z,37.21
2023-04-03T14:06:16.255Z,36.59
2023-04-03T14:08:43.970Z,37.10
2023-04-03T14:11:23.214Z,38.09
2023-04-03T14:13:51.174Z,37.80
2023-04-03T14:16:23.992Z,38.49
2023-04-03T14:18:52.047Z,38.47
2023-04-03T14:21:20.770Z,39.46
2023-04-03T14:23:47.081Z,39.08
2023-04-03T14:26:31.765Z,38.90
2023-04-03T14:28:58.146Z,38.60
2023-04-03T14:31:25.248Z,38.92
2023-04-03T14:33:51.981Z,39.59
2023-04-03T14:36:21.987Z,40.57
2023-04-03T14:38:50.517Z,41.45
2023-04-03T14:41:19.999Z,41.91
2023-04-03T14:43:47.486Z,42.23
2023-04-03T14:46:19.170Z,41.09
2023-04-03T14:48:46.248Z,40.47
2023-04-03T14:51:14.289Z,41.33
2023-04-03T14:53:41.681Z,41.03
2023-04-03T14:56:23.061Z,41.97
2023-04-03T14:58:54.603Z,41.44
2023-04-03T15:01:20.899Z,41.69
2023-04-03T15:03:47.480Z,41.46
2023-04-03T15:06:15.479Z,41.52
2023-04-03T15:08:43.169Z,41.68
2023-04-03T15:11:13.290Z,43.13
2023-04-03T15:13:40.529Z,42.29
2023-04-03T15:16:16.328Z,41.87
2023-04-03T15:18:42.862Z,42.93
2023-04-03T15:21:09.237Z,42.36
2023-04-03T15:23:35.685Z,42.50
2023-04-03T15:26:02.599Z,42.49
2023-04-03T15:28:35.970Z,42.95
2023-04-03T15:31:03.592Z,42.34
2023-04-03T15:33:30.769Z,41.47
2023-04-03T15:36:06.640Z,43.46
2023-04-03T15:38:34.458Z,42.29
2023-04-03T15:41:00.908Z,41.98
2023-04-03T15:43:27.266Z,41.93
2023-04-03T15:45:58.751Z,42.62
2023-04-03T15:48:26.220Z,42.42
2023-04-03T15:50:52.805Z,43.50
2023-04-03T15:53:19.205Z,43.11
2023-04-03T15:55:45.669Z,42.40
2023-04-03T15:58:12.387Z,41.11
2023-04-03T16:00:39.421Z,41.70
2023-04-03T16:03:10.713Z,41.67
2023-04-03T16:05:37.987Z,41.08
2023-04-03T16:08:04.637Z,41.72
2023-04-03T16:10:30.969Z,41.79
2023-04-03T16:12:57.377Z,41.97
2023-04-03T16:15:25.334Z,42.62
2023-04-03T16:17:51.948Z,42.16
2023-04-03T16:20:19.598Z,43.42
2023-04-03T16:22:46.265Z,43.35
2023-04-03T16:25:12.879Z,43.47
2023-04-03T16:27:39.543Z,43.13
2023-04-03T16:30:06.790Z,43.46
2023-04-03T16:32:33.612Z,43.58
2023-04-03T16:37:33.095Z,42.34
2023-04-03T16:39:59.675Z,42.09
2023-04-03T16:42:26.446Z,40.96
2023-04-03T16:44:52.765Z,41.97
2023-04-03T16:47:20.601Z,41.57
2023-04-03T16:49:47.960Z,42.85
2023-04-03T16:52:14.931Z,42.07
2023-04-03T16:54:41.525Z,42.22
2023-04-03T16:57:07.960Z,43.13
2023-04-03T16:59:34.261Z,43.66
2023-04-03T17:02:00.702Z,43.45
2023-04-03T17:04:27.297Z,43.75
2023-04-03T17:06:53.670Z,43.75
2023-04-03T17:09:21.485Z,44.12
2023-04-03T17:11:49.276Z,44.95
2023-04-03T17:14:16.164Z,45.00
2023-04-03T17:16:42.758Z,46.28
2023-04-03T17:19:09.567Z,45.45
2023-04-03T17:21:36.735Z,45.54
2023-04-03T17:24:08.441Z,44.91
2023-04-03T17:26:37.300Z,45.47
2023-04-03T17:29:04.416Z,45.30
2023-04-03T17:31:30.943Z,46.00
2023-04-03T17:33:57.473Z,45.68
2023-04-03T17:36:23.972Z,44.92
2023-04-03T17:38:51.988Z,45.30
2023-04-03T17:41:18.386Z,45.26
2023-04-03T17:43:44.693Z,44.82
2023-04-03T17:46:11.582Z,45.78
2023-04-03T17:48:39.496Z,46.22
2023-04-03T17:51:14.334Z,46.12
2023-04-03T17:53:41.447Z,47.03
2023-04-03T17:56:16.665Z,46.20
2023-04-03T17:58:44.207Z,45.90
2023-04-03T18:01:14.443Z,46.65
2023-04-03T18:03:41.759Z,46.86
2023-04-03T18:06:14.631Z,46.77
2023-04-03T18:08:50.651Z,47.57
2023-04-03T18:11:18.651Z,47.80
2023-04-03T18:13:46.549Z,48.52
2023-04-03T18:16:13.855Z,47.98
2023-04-03T18:18:40.945Z,48.14
2023-04-03T18:21:13.572Z,48.60
2023-04-03T18:23:43.047Z,48.44
2023-04-03T18:26:11.868Z,48.74
2023-04-03T18:28:40.445Z,48.83
2023-04-03T18:31:10.700Z,48.44
2023-04-03T18:33:37.713Z,48.51
2023-04-03T18:36:05.722Z,48.72
2023-04-03T18:38:32.066Z,48.79
2023-04-03T18:40:59.097Z,49.39
2023-04-03T18:43:26.644Z,49.63
2023-04-03T18:45:53.431Z,49.70
2023-04-03T18:48:21.120Z,49.68
2023-04-03T18:50:48.467Z,49.50
2023-04-03T18:53:14.875Z,50.03
2023-04-03T18:55:41.551Z,49.66
2023-04-03T18:58:08.763Z,50.23
2023-04-03T19:00:35.390Z,50.45
2023-04-03T19:03:01.836Z,50.89
2023-04-03T19:05:28.529Z,50.19
2023-04-03T19:07:55.835Z,51.23
2023-04-03T19:10:22.198Z,51.46
2023-04-03T19:12:50.232Z,51.46
2023-04-03T19:15:20.710Z,51.73
2023-04-03T19:17:47.083Z,52.41
2023-04-03T19:20:14.530Z,52.46
2023-04-03T19:22:41.528Z,53.39
2023-04-03T19:25:12.009Z,52.83
2023-04-03T19:27:39.731Z,53.40
2023-04-03T19:30:07.084Z,54.91
2023-04-03T19:32:33.513Z,56.01
2023-04-03T19:35:00.866Z,56.46
2023-04-03T19:37:28.072Z,56.50
2023-04-03T19:39:54.661Z,58.30
2023-04-03T19:42:21.111Z,59.10
2023-04-03T19:44:48.558Z,59.93
2023-04-03T19:47:16.327Z,60.03
2023-04-03T19:49:42.816Z,60.47
2023-04-03T19:52:09.174Z,61.05
2023-04-03T19:54:35.753Z,61.01
2023-04-03T19:57:02.166Z,60.63
2023-04-03T19:59:28.712Z,61.03
2023-04-03T20:01:55.228Z,62.67
2023-04-03T20:04:21.679Z,62.51
2023-04-03T20:06:49.596Z,62.12
2023-04-03T20:09:18.072Z,61.21
2023-04-03T20:11:47.834Z,61.59
2023-04-03T20:14:16.414Z,63.21
2023-04-03T20:16:43.350Z,61.79
2023-04-03T20:19:09.702Z,61.48
2023-04-03T20:21:36.640Z,61.74
2023-04-03T20:24:05.420Z,62.67
2023-04-03T20:26:32.753Z,61.65
2023-04-03T20:29:02.500Z,61.37
2023-04-03T20:31:29.894Z,61.84
2023-04-03T20:33:56.724Z,62.37
2023-04-03T20:36:23.832Z,62.43
2023-04-03T20:38:52.129Z,62.98
2023-04-03T20:41:18.737Z,62.85
2023-04-03T20:43:46.177Z,62.93
2023-04-03T20:46:13.992Z,64.30
2023-04-03T20:48:40.769Z,63.54
2023-04-03T20:51:12.198Z,63.67
2023-04-03T20:53:39.073Z,64.53
2023-04-03T20:56:08.905Z,64.01
2023-04-03T20:58:38.222Z,66.15
2023-04-03T21:01:15.311Z,66.04
2023-04-03T21:03:41.713Z,65.42
2023-04-03T21:06:46.072Z,65.46
2023-04-03T21:09:50.136Z,65.95
2023-04-03T21:12:55.362Z,65.18
2023-04-03T21:15:47.496Z,65.53
2023-04-03T21:18:22.440Z,65.39
2023-04-03T21:20:49.025Z,64.79
2023-04-03T21:23:15.591Z,66.10
2023-04-03T21:25:41.912Z,65.50
2023-04-03T21:28:08.623Z,64.96
2023-04-03T21:30:34.962Z,64.61
2023-04-03T21:33:01.412Z,64.55
2023-04-03T21:35:27.759Z,64.54
2023-04-03T21:37:54.224Z,63.29
2023-04-03T21:40:20.737Z,61.51
2023-04-03T21:42:47.179Z,60.99
2023-04-03T21:45:15.877Z,61.48
2023-04-03T21:47:43.707Z,59.91
2023-04-03T21:50:10.378Z,59.62
2023-04-03T21:52:36.662Z,58.85
2023-04-03T21:55:03.507Z,57.87
2023-04-03T21:57:31.103Z,57.24
2023-04-03T21:59:57.559Z,57.61
2023-04-03T22:02:26.249Z,57.18
2023-04-03T22:04:52.940Z,56.10
2023-04-03T22:07:19.573Z,57.00
2023-04-03T22:09:46.126Z,57.29
2023-04-03T22:12:12.539Z,57.27
2023-04-03T22:14:39.307Z,56.82
2023-04-03T22:17:06.515Z,56.90
2023-04-03T22:19:32.794Z,56.52
2023-04-03T22:21:59.095Z,55.92
2023-04-03T22:24:25.375Z,55.25
2023-04-03T22:26:51.668Z,54.93
2023-04-03T22:29:17.991Z,54.91
2023-04-03T22:31:44.308Z,54.60
2023-04-03T22:34:10.994Z,54.60
2023-04-03T22:36:38.581Z,54.71
2023-04-03T22:39:05.993Z,54.76
2023-04-03T22:41:33.351Z,55.52
2023-04-03T22:43:59.629Z,55.89
2023-04-03T22:46:26.512Z,54.99
2023-04-03T22:48:52.913Z,55.84
2023-04-03T22:51:19.221Z,55.25
2023-04-03T22:53:45.556Z,56.47
2023-04-03T22:56:12.957Z,55.55
2023-04-03T22:58:39.414Z,55.89
2023-04-03T23:01:12.884Z,56.35
2023-04-03T23:03:40.659Z,56.65
2023-04-03T23:06:08.274Z,56.53
2023-04-03T23:08:37.732Z,56.33
2023-04-03T23:11:06.779Z,55.72
2023-04-03T23:13:33.075Z,56.65
2023-04-03T23:16:01.353Z,56.83
2023-04-03T23:18:31.758Z,56.80
2023-04-03T23:21:03.125Z,57.08
2023-04-03T23:23:29.623Z,57.51
2023-04-03T23:26:01.551Z,56.56
2023-04-03T23:28:28.952Z,57.01
2023-04-03T23:31:03.799Z,56.53
2023-04-03T23:33:31.893Z,56.39
2023-04-03T23:35:59.628Z,55.91
2023-04-03T23:38:26.301Z,56.77
2023-04-03T23:40:52.617Z,57.73
2023-04-03T23:43:18.978Z,59.31
2023-04-03T23:45:45.554Z,60.60
2023-04-03T23:48:13.034Z,60.10
2023-04-03T23:50:39.582Z,59.68
2023-04-03T23:53:06.360Z,60.70
2023-04-03T23:55:32.973Z,62.62
2023-04-03T23:57:59.268Z,62.38
